AUA579 LOWW-LICC
Flight info
| Callsign | AUA579 |
|---|---|
| Flight time | N/A |
| Altitude | 38000 |
| Route | STEIN DCT NOHAT DCT NEKIN DCT NIVES DCT RASTU DCT PALEZ DCT MOLUX DCT NERAR DCT VAKOR DCT PELEN DCT UXUTA |
| Aircraft | A20N/M-SDE2E3FGHIJ1RWXY/LB1 |
Departure
| Time | 2026-04-22 08:14 |
|---|---|
| Airport | Vienna International Airport (LOWW) |
Arrival
| Time | N/A |
|---|---|
| Airport | Catania-Fontanarossa Airport (LICC) |
| Time | Latitude | Longitude | Altitude | Speed | Heading |
|---|---|---|---|---|---|
| 2026-04-22 07:41 | 48.11901 | 16.56769 | 609 ft | 0 kts | 205° |
| 2026-04-22 07:58 | 48.11902 | 16.56770 | 609 ft | 1 kts | 205° |
| 2026-04-22 07:58 | 48.11915 | 16.56779 | 609 ft | 2 kts | 205° |
| 2026-04-22 07:58 | 48.11924 | 16.56785 | 609 ft | 2 kts | 205° |
| 2026-04-22 07:58 | 48.11938 | 16.56791 | 609 ft | 2 kts | 182° |
| 2026-04-22 07:59 | 48.11953 | 16.56789 | 609 ft | 2 kts | 163° |
| 2026-04-22 07:59 | 48.11967 | 16.56779 | 609 ft | 2 kts | 144° |
| 2026-04-22 07:59 | 48.11978 | 16.56764 | 609 ft | 2 kts | 125° |
| 2026-04-22 07:59 | 48.11982 | 16.56754 | 609 ft | 1 kts | 114° |
| 2026-04-22 08:00 | 48.11984 | 16.56748 | 609 ft | 0 kts | 116° |
| 2026-04-22 08:01 | 48.11983 | 16.56749 | 609 ft | 0 kts | 116° |
| 2026-04-22 08:01 | 48.11981 | 16.56756 | 609 ft | 1 kts | 116° |
| 2026-04-22 08:01 | 48.11969 | 16.56789 | 609 ft | 5 kts | 117° |
| 2026-04-22 08:01 | 48.11949 | 16.56850 | 609 ft | 7 kts | 117° |
| 2026-04-22 08:02 | 48.11921 | 16.56936 | 609 ft | 9 kts | 116° |
| 2026-04-22 08:02 | 48.11892 | 16.57030 | 609 ft | 9 kts | 115° |
| 2026-04-22 08:02 | 48.11862 | 16.57123 | 609 ft | 9 kts | 114° |
| 2026-04-22 08:02 | 48.11848 | 16.57223 | 609 ft | 9 kts | 108° |
| 2026-04-22 08:03 | 48.11820 | 16.57317 | 609 ft | 9 kts | 116° |
| 2026-04-22 08:03 | 48.11808 | 16.57415 | 609 ft | 9 kts | 96° |
| 2026-04-22 08:03 | 48.11763 | 16.57485 | 609 ft | 9 kts | 161° |
| 2026-04-22 08:03 | 48.11697 | 16.57516 | 609 ft | 10 kts | 163° |
| 2026-04-22 08:04 | 48.11630 | 16.57544 | 609 ft | 10 kts | 166° |
| 2026-04-22 08:04 | 48.11561 | 16.57570 | 609 ft | 10 kts | 166° |
| 2026-04-22 08:04 | 48.11493 | 16.57601 | 609 ft | 10 kts | 163° |
| 2026-04-22 08:04 | 48.11425 | 16.57632 | 609 ft | 10 kts | 164° |
| 2026-04-22 08:05 | 48.11355 | 16.57660 | 609 ft | 10 kts | 166° |
| 2026-04-22 08:05 | 48.11285 | 16.57687 | 609 ft | 10 kts | 166° |
| 2026-04-22 08:05 | 48.11215 | 16.57716 | 609 ft | 10 kts | 163° |
| 2026-04-22 08:05 | 48.11147 | 16.57749 | 609 ft | 10 kts | 161° |
| 2026-04-22 08:06 | 48.11076 | 16.57781 | 609 ft | 10 kts | 165° |
| 2026-04-22 08:06 | 48.11006 | 16.57809 | 609 ft | 10 kts | 166° |
| 2026-04-22 08:06 | 48.10936 | 16.57837 | 609 ft | 10 kts | 165° |
| 2026-04-22 08:06 | 48.10868 | 16.57865 | 609 ft | 10 kts | 165° |
| 2026-04-22 08:07 | 48.10797 | 16.57895 | 609 ft | 10 kts | 164° |
| 2026-04-22 08:07 | 48.10721 | 16.57929 | 609 ft | 12 kts | 163° |
| 2026-04-22 08:07 | 48.10636 | 16.57966 | 609 ft | 13 kts | 163° |
| 2026-04-22 08:07 | 48.10546 | 16.58007 | 609 ft | 14 kts | 163° |
| 2026-04-22 08:08 | 48.10448 | 16.58049 | 609 ft | 14 kts | 165° |
| 2026-04-22 08:08 | 48.10346 | 16.58092 | 609 ft | 15 kts | 165° |
| 2026-04-22 08:08 | 48.10238 | 16.58134 | 609 ft | 16 kts | 166° |
| 2026-04-22 08:08 | 48.10126 | 16.58180 | 609 ft | 16 kts | 164° |
| 2026-04-22 08:09 | 48.10052 | 16.58213 | 609 ft | 11 kts | 164° |
| 2026-04-22 08:09 | 48.09972 | 16.58248 | 609 ft | 12 kts | 164° |
| 2026-04-22 08:09 | 48.09885 | 16.58285 | 609 ft | 13 kts | 165° |
| 2026-04-22 08:09 | 48.09792 | 16.58323 | 609 ft | 14 kts | 165° |
| 2026-04-22 08:10 | 48.09691 | 16.58362 | 609 ft | 15 kts | 166° |
| 2026-04-22 08:10 | 48.09586 | 16.58405 | 609 ft | 15 kts | 163° |
| 2026-04-22 08:10 | 48.09479 | 16.58454 | 609 ft | 16 kts | 163° |
| 2026-04-22 08:10 | 48.09367 | 16.58502 | 609 ft | 17 kts | 165° |
| 2026-04-22 08:11 | 48.09251 | 16.58550 | 609 ft | 17 kts | 165° |
| 2026-04-22 08:11 | 48.09137 | 16.58596 | 609 ft | 11 kts | 163° |
| 2026-04-22 08:11 | 48.09068 | 16.58627 | 609 ft | 10 kts | 163° |
| 2026-04-22 08:11 | 48.08993 | 16.58664 | 609 ft | 11 kts | 152° |
| 2026-04-22 08:12 | 48.08934 | 16.58753 | 609 ft | 12 kts | 116° |
| 2026-04-22 08:12 | 48.08923 | 16.58888 | 609 ft | 13 kts | 80° |
| 2026-04-22 08:12 | 48.08977 | 16.59008 | 609 ft | 14 kts | 38° |
| 2026-04-22 08:12 | 48.09071 | 16.59042 | 609 ft | 12 kts | 354° |
| 2026-04-22 08:13 | 48.09091 | 16.59037 | 609 ft | 0 kts | 347° |
| 2026-04-22 08:13 | 48.09092 | 16.59036 | 609 ft | 0 kts | 347° |
| 2026-04-22 08:14 | 48.09145 | 16.59017 | 609 ft | 33 kts | 345° |
| 2026-04-22 08:14 | 48.09640 | 16.58798 | 609 ft | 110 kts | 343° |
| 2026-04-22 08:14 | 48.10564 | 16.58385 | 719 ft | 158 kts | 341° |
| 2026-04-22 08:14 | 48.11617 | 16.57893 | 1368 ft | 162 kts | 343° |
| 2026-04-22 08:15 | 48.12560 | 16.57072 | 2152 ft | 164 kts | 311° |
| 2026-04-22 08:15 | 48.12853 | 16.55440 | 2776 ft | 181 kts | 264° |
| 2026-04-22 08:15 | 48.12158 | 16.53738 | 3195 ft | 212 kts | 219° |
| 2026-04-22 08:15 | 48.10809 | 16.52620 | 3703 ft | 234 kts | 208° |
| 2026-04-22 08:16 | 48.09261 | 16.51477 | 4538 ft | 241 kts | 210° |
| 2026-04-22 08:16 | 48.07787 | 16.50306 | 5428 ft | 243 kts | 211° |
| 2026-04-22 08:16 | 48.06327 | 16.49097 | 6285 ft | 246 kts | 211° |
| 2026-04-22 08:16 | 48.04859 | 16.47777 | 7135 ft | 251 kts | 214° |
| 2026-04-22 08:17 | 48.03350 | 16.46313 | 7727 ft | 267 kts | 215° |
| 2026-04-22 08:17 | 48.01758 | 16.44753 | 8265 ft | 285 kts | 214° |
| 2026-04-22 08:17 | 48.00064 | 16.43109 | 8931 ft | 298 kts | 212° |
| 2026-04-22 08:17 | 47.98144 | 16.42027 | 9748 ft | 302 kts | 185° |
| 2026-04-22 08:18 | 47.96067 | 16.42305 | 10639 ft | 301 kts | 164° |
| 2026-04-22 08:18 | 47.94012 | 16.43082 | 11285 ft | 312 kts | 163° |
| 2026-04-22 08:18 | 47.91903 | 16.43902 | 12031 ft | 319 kts | 163° |
| 2026-04-22 08:18 | 47.89746 | 16.44717 | 12884 ft | 323 kts | 163° |
| 2026-04-22 08:19 | 47.87558 | 16.45520 | 13705 ft | 326 kts | 163° |
| 2026-04-22 08:19 | 47.85350 | 16.46314 | 14506 ft | 330 kts | 163° |
| 2026-04-22 08:19 | 47.83141 | 16.47101 | 15271 ft | 334 kts | 163° |
| 2026-04-22 08:19 | 47.80866 | 16.47906 | 16034 ft | 338 kts | 163° |
| 2026-04-22 08:20 | 47.78576 | 16.48713 | 16777 ft | 342 kts | 164° |
| 2026-04-22 08:20 | 47.76278 | 16.49520 | 17513 ft | 345 kts | 164° |
| 2026-04-22 08:20 | 47.73922 | 16.50347 | 18235 ft | 349 kts | 164° |
| 2026-04-22 08:20 | 47.71555 | 16.51176 | 18938 ft | 352 kts | 164° |
| 2026-04-22 08:21 | 47.69180 | 16.52006 | 19616 ft | 356 kts | 164° |
| 2026-04-22 08:21 | 47.66777 | 16.52846 | 20274 ft | 359 kts | 164° |
| 2026-04-22 08:21 | 47.64341 | 16.53697 | 20929 ft | 363 kts | 163° |
| 2026-04-22 08:21 | 47.61856 | 16.54565 | 21589 ft | 367 kts | 163° |
| 2026-04-22 08:22 | 47.59393 | 16.55428 | 22231 ft | 370 kts | 163° |
| 2026-04-22 08:22 | 47.56880 | 16.56309 | 22877 ft | 374 kts | 163° |
| 2026-04-22 08:22 | 47.54359 | 16.57191 | 23507 ft | 377 kts | 163° |
| 2026-04-22 08:22 | 47.51774 | 16.58073 | 24131 ft | 381 kts | 165° |
| 2026-04-22 08:23 | 47.49168 | 16.58741 | 24709 ft | 386 kts | 169° |
| 2026-04-22 08:23 | 47.46508 | 16.59271 | 25251 ft | 390 kts | 169° |
| 2026-04-22 08:23 | 47.43819 | 16.59774 | 25790 ft | 394 kts | 171° |
| 2026-04-22 08:23 | 47.41089 | 16.60082 | 26301 ft | 399 kts | 175° |
| 2026-04-22 08:24 | 47.38298 | 16.60215 | 26809 ft | 402 kts | 176° |
| 2026-04-22 08:24 | 47.35502 | 16.60331 | 27300 ft | 405 kts | 176° |
| 2026-04-22 08:24 | 47.32678 | 16.60447 | 27775 ft | 407 kts | 176° |
| 2026-04-22 08:24 | 47.29843 | 16.60565 | 28233 ft | 410 kts | 176° |
| 2026-04-22 08:25 | 47.27022 | 16.60686 | 28645 ft | 413 kts | 176° |
| 2026-04-22 08:25 | 47.24133 | 16.60810 | 29069 ft | 415 kts | 176° |
| 2026-04-22 08:25 | 47.21252 | 16.60934 | 29457 ft | 418 kts | 176° |
| 2026-04-22 08:25 | 47.18340 | 16.61060 | 29812 ft | 420 kts | 177° |
| 2026-04-22 08:26 | 47.15437 | 16.61185 | 30140 ft | 423 kts | 177° |
| 2026-04-22 08:26 | 47.12463 | 16.61313 | 30479 ft | 425 kts | 177° |
| 2026-04-22 08:26 | 47.09519 | 16.61439 | 30778 ft | 427 kts | 177° |
| 2026-04-22 08:26 | 47.06578 | 16.61566 | 31055 ft | 429 kts | 177° |
| 2026-04-22 08:27 | 47.03596 | 16.61695 | 31304 ft | 431 kts | 177° |
| 2026-04-22 08:27 | 47.00576 | 16.61827 | 31509 ft | 434 kts | 178° |
| 2026-04-22 08:27 | 46.97575 | 16.61956 | 31731 ft | 436 kts | 178° |
| 2026-04-22 08:27 | 46.94548 | 16.62085 | 31953 ft | 438 kts | 178° |
| 2026-04-22 08:28 | 46.91499 | 16.62214 | 32166 ft | 441 kts | 178° |
| 2026-04-22 08:28 | 46.88431 | 16.62344 | 32377 ft | 443 kts | 178° |
| 2026-04-22 08:28 | 46.85323 | 16.62475 | 32566 ft | 445 kts | 178° |
| 2026-04-22 08:28 | 46.82226 | 16.62636 | 32746 ft | 448 kts | 177° |
| 2026-04-22 08:29 | 46.79159 | 16.63021 | 32943 ft | 449 kts | 173° |
| 2026-04-22 08:29 | 46.76068 | 16.63607 | 33191 ft | 449 kts | 173° |
| 2026-04-22 08:29 | 46.72981 | 16.64206 | 33437 ft | 449 kts | 173° |
| 2026-04-22 08:29 | 46.69869 | 16.64807 | 33693 ft | 450 kts | 173° |
| 2026-04-22 08:30 | 46.66774 | 16.65401 | 33940 ft | 450 kts | 173° |
| 2026-04-22 08:30 | 46.63700 | 16.65989 | 34216 ft | 450 kts | 173° |
| 2026-04-22 08:30 | 46.60577 | 16.66583 | 34503 ft | 450 kts | 174° |
| 2026-04-22 08:30 | 46.57497 | 16.67169 | 34768 ft | 449 kts | 174° |
| 2026-04-22 08:31 | 46.54400 | 16.67755 | 35031 ft | 449 kts | 174° |
| 2026-04-22 08:31 | 46.51327 | 16.68338 | 35286 ft | 449 kts | 174° |
| 2026-04-22 08:31 | 46.45145 | 16.69099 | 35793 ft | 447 kts | 183° |
| 2026-04-22 08:32 | 46.42032 | 16.68832 | 36018 ft | 445 kts | 189° |
| 2026-04-22 08:32 | 46.38984 | 16.68093 | 36238 ft | 443 kts | 196° |
| 2026-04-22 08:32 | 46.36035 | 16.66906 | 36454 ft | 441 kts | 202° |
| 2026-04-22 08:32 | 46.33192 | 16.65286 | 36641 ft | 439 kts | 208° |
| 2026-04-22 08:33 | 46.30438 | 16.63417 | 36806 ft | 440 kts | 209° |
| 2026-04-22 08:33 | 46.27707 | 16.61515 | 36987 ft | 441 kts | 210° |
| 2026-04-22 08:33 | 46.24926 | 16.59581 | 37155 ft | 442 kts | 210° |
| 2026-04-22 08:33 | 46.22193 | 16.57691 | 37330 ft | 442 kts | 209° |
| 2026-04-22 08:34 | 46.19392 | 16.55765 | 37502 ft | 443 kts | 209° |
| 2026-04-22 08:34 | 46.16629 | 16.53872 | 37652 ft | 444 kts | 210° |
| 2026-04-22 08:34 | 46.13839 | 16.51966 | 37785 ft | 446 kts | 209° |
| 2026-04-22 08:34 | 46.11059 | 16.50072 | 37932 ft | 447 kts | 210° |
| 2026-04-22 08:35 | 46.08231 | 16.48147 | 38089 ft | 447 kts | 209° |
| 2026-04-22 08:35 | 46.02628 | 16.44342 | 38171 ft | 449 kts | 210° |
| 2026-04-22 08:36 | 45.96971 | 16.40510 | 38184 ft | 448 kts | 210° |
| 2026-04-22 08:36 | 45.91340 | 16.36706 | 38185 ft | 448 kts | 210° |
| 2026-04-22 08:37 | 45.85742 | 16.32931 | 38184 ft | 448 kts | 209° |
| 2026-04-22 08:37 | 45.80086 | 16.29128 | 38189 ft | 448 kts | 209° |
| 2026-04-22 08:38 | 45.74484 | 16.25368 | 38189 ft | 448 kts | 209° |
| 2026-04-22 08:38 | 45.68870 | 16.21609 | 38190 ft | 448 kts | 209° |
| 2026-04-22 08:39 | 45.63229 | 16.17837 | 38191 ft | 447 kts | 209° |
| 2026-04-22 08:39 | 45.57614 | 16.14092 | 38193 ft | 446 kts | 209° |
| 2026-04-22 08:40 | 45.52004 | 16.10358 | 38188 ft | 446 kts | 210° |
| 2026-04-22 08:40 | 45.46390 | 16.06631 | 38186 ft | 446 kts | 210° |
| 2026-04-22 08:41 | 45.40781 | 16.02914 | 38181 ft | 446 kts | 210° |
| 2026-04-22 08:41 | 45.35175 | 15.99205 | 38176 ft | 446 kts | 210° |
| 2026-04-22 08:42 | 45.29551 | 15.95492 | 38177 ft | 446 kts | 210° |
| 2026-04-22 08:42 | 45.23951 | 15.91808 | 38177 ft | 446 kts | 210° |
| 2026-04-22 08:43 | 45.18265 | 15.88370 | 38173 ft | 447 kts | 207° |
| 2026-04-22 08:43 | 45.12533 | 15.85021 | 38157 ft | 446 kts | 207° |
| 2026-04-22 08:44 | 45.06780 | 15.81664 | 38160 ft | 447 kts | 207° |
| 2026-04-22 08:44 | 45.01088 | 15.78349 | 38150 ft | 446 kts | 208° |
| 2026-04-22 08:45 | 44.95383 | 15.75034 | 38140 ft | 445 kts | 208° |
| 2026-04-22 08:45 | 44.89645 | 15.71722 | 38123 ft | 445 kts | 207° |
| 2026-04-22 08:46 | 44.83948 | 15.68453 | 38108 ft | 445 kts | 208° |
| 2026-04-22 08:46 | 44.78230 | 15.65173 | 38081 ft | 445 kts | 207° |
| 2026-04-22 08:47 | 44.72488 | 15.61882 | 38083 ft | 446 kts | 208° |
| 2026-04-22 08:47 | 44.66780 | 15.58618 | 38079 ft | 446 kts | 208° |
| 2026-04-22 08:48 | 44.61042 | 15.55398 | 38066 ft | 446 kts | 206° |
| 2026-04-22 08:48 | 44.55062 | 15.52886 | 38080 ft | 452 kts | 198° |
| 2026-04-22 08:49 | 44.48894 | 15.51296 | 38069 ft | 454 kts | 195° |
| 2026-04-22 08:49 | 44.42668 | 15.49860 | 38075 ft | 455 kts | 195° |
| 2026-04-22 08:50 | 44.36450 | 15.48420 | 38082 ft | 454 kts | 195° |
| 2026-04-22 08:50 | 44.30229 | 15.46975 | 38085 ft | 454 kts | 195° |
| 2026-04-22 08:51 | 44.24023 | 15.45535 | 38090 ft | 453 kts | 195° |
| 2026-04-22 08:51 | 44.17791 | 15.44091 | 38086 ft | 453 kts | 195° |
| 2026-04-22 08:52 | 44.11587 | 15.42656 | 38085 ft | 453 kts | 195° |
| 2026-04-22 08:52 | 44.05396 | 15.41228 | 38080 ft | 453 kts | 195° |
| 2026-04-22 08:53 | 43.99176 | 15.39798 | 38080 ft | 453 kts | 195° |
| 2026-04-22 08:53 | 43.92979 | 15.38374 | 38102 ft | 452 kts | 195° |
| 2026-04-22 08:54 | 43.86780 | 15.36953 | 38083 ft | 452 kts | 196° |
| 2026-04-22 08:54 | 43.80586 | 15.35537 | 38051 ft | 451 kts | 195° |
| 2026-04-22 08:55 | 43.74416 | 15.34127 | 38095 ft | 453 kts | 195° |
| 2026-04-22 08:55 | 43.68211 | 15.32713 | 38068 ft | 452 kts | 195° |
| 2026-04-22 08:56 | 43.62012 | 15.31307 | 38072 ft | 454 kts | 195° |
| 2026-04-22 08:56 | 43.55794 | 15.29894 | 38071 ft | 452 kts | 195° |
| 2026-04-22 08:57 | 43.49618 | 15.28501 | 38065 ft | 450 kts | 195° |
| 2026-04-22 08:57 | 43.43470 | 15.27109 | 38065 ft | 451 kts | 195° |
| 2026-04-22 08:58 | 43.37286 | 15.25714 | 38069 ft | 451 kts | 196° |
| 2026-04-22 08:58 | 43.31085 | 15.24320 | 37999 ft | 451 kts | 196° |
| 2026-04-22 08:59 | 43.24911 | 15.22935 | 38060 ft | 450 kts | 196° |
| 2026-04-22 08:59 | 43.18756 | 15.21555 | 38061 ft | 450 kts | 196° |
| 2026-04-22 09:00 | 43.12541 | 15.20165 | 38074 ft | 451 kts | 196° |
| 2026-04-22 09:00 | 43.06402 | 15.18794 | 38076 ft | 451 kts | 196° |
| 2026-04-22 09:01 | 43.00183 | 15.17412 | 38066 ft | 450 kts | 196° |
| 2026-04-22 09:01 | 42.94064 | 15.16053 | 38081 ft | 449 kts | 196° |
| 2026-04-22 09:02 | 42.87901 | 15.14687 | 38058 ft | 449 kts | 196° |
| 2026-04-22 09:02 | 42.81737 | 15.13322 | 38061 ft | 449 kts | 197° |
| 2026-04-22 09:03 | 42.75608 | 15.11968 | 38072 ft | 448 kts | 196° |
| 2026-04-22 09:03 | 42.69444 | 15.10610 | 38071 ft | 447 kts | 197° |
| 2026-04-22 09:04 | 42.63353 | 15.09270 | 38086 ft | 446 kts | 197° |
| 2026-04-22 09:04 | 42.57225 | 15.07925 | 38052 ft | 446 kts | 197° |
| 2026-04-22 09:05 | 42.51118 | 15.06584 | 38072 ft | 445 kts | 197° |
| 2026-04-22 09:05 | 42.45024 | 15.05253 | 38071 ft | 444 kts | 197° |
| 2026-04-22 09:06 | 42.38922 | 15.03923 | 38090 ft | 443 kts | 197° |
| 2026-04-22 09:06 | 42.32834 | 15.02594 | 38102 ft | 444 kts | 197° |
| 2026-04-22 09:07 | 42.26760 | 15.01275 | 38069 ft | 443 kts | 197° |
| 2026-04-22 09:07 | 42.20709 | 14.99961 | 38093 ft | 444 kts | 197° |
| 2026-04-22 09:08 | 42.14645 | 14.98650 | 38070 ft | 443 kts | 197° |
| 2026-04-22 09:08 | 42.08546 | 14.97331 | 38090 ft | 443 kts | 197° |
| 2026-04-22 09:09 | 42.02500 | 14.96026 | 38076 ft | 442 kts | 198° |
| 2026-04-22 09:09 | 41.96450 | 14.94722 | 38086 ft | 440 kts | 197° |
| 2026-04-22 09:10 | 41.90395 | 14.93422 | 38090 ft | 441 kts | 197° |
| 2026-04-22 09:10 | 41.84358 | 14.92128 | 38059 ft | 440 kts | 197° |
| 2026-04-22 09:11 | 41.78312 | 14.90831 | 38078 ft | 441 kts | 197° |
| 2026-04-22 09:11 | 41.72251 | 14.89537 | 38060 ft | 441 kts | 198° |
| 2026-04-22 09:12 | 41.66215 | 14.88249 | 38057 ft | 441 kts | 198° |
| 2026-04-22 09:12 | 41.60166 | 14.86961 | 38064 ft | 439 kts | 197° |
| 2026-04-22 09:13 | 41.54157 | 14.85685 | 38051 ft | 439 kts | 198° |
| 2026-04-22 09:13 | 41.48100 | 14.84397 | 38044 ft | 442 kts | 198° |
| 2026-04-22 09:14 | 41.42075 | 14.83122 | 38068 ft | 440 kts | 198° |
| 2026-04-22 09:14 | 41.36008 | 14.81839 | 38035 ft | 441 kts | 198° |
| 2026-04-22 09:15 | 41.30023 | 14.80531 | 38030 ft | 437 kts | 200° |
| 2026-04-22 09:15 | 41.24078 | 14.78894 | 38043 ft | 436 kts | 200° |
| 2026-04-22 09:16 | 41.18151 | 14.77250 | 38032 ft | 437 kts | 200° |
| 2026-04-22 09:16 | 41.12123 | 14.75580 | 38027 ft | 438 kts | 200° |
| 2026-04-22 09:17 | 41.05890 | 14.73861 | 38013 ft | 438 kts | 200° |
| 2026-04-22 09:17 | 40.99912 | 14.72213 | 38005 ft | 439 kts | 200° |
| 2026-04-22 09:18 | 40.93965 | 14.70577 | 38002 ft | 439 kts | 200° |
| 2026-04-22 09:18 | 40.87983 | 14.68935 | 37991 ft | 437 kts | 200° |
| 2026-04-22 09:19 | 40.82021 | 14.67302 | 38002 ft | 439 kts | 200° |
| 2026-04-22 09:19 | 40.76035 | 14.65662 | 37995 ft | 439 kts | 200° |
| 2026-04-22 09:20 | 40.70072 | 14.64036 | 37990 ft | 438 kts | 200° |
| 2026-04-22 09:20 | 40.64139 | 14.62415 | 37989 ft | 439 kts | 200° |
| 2026-04-22 09:21 | 40.58173 | 14.60793 | 37980 ft | 438 kts | 200° |
| 2026-04-22 09:21 | 40.52174 | 14.59163 | 37983 ft | 439 kts | 200° |
| 2026-04-22 09:22 | 40.46206 | 14.57544 | 37977 ft | 441 kts | 200° |
| 2026-04-22 09:22 | 40.40229 | 14.55929 | 37976 ft | 441 kts | 200° |
| 2026-04-22 09:23 | 40.34234 | 14.54308 | 37974 ft | 441 kts | 200° |
| 2026-04-22 09:23 | 40.28213 | 14.52685 | 37977 ft | 441 kts | 199° |
| 2026-04-22 09:24 | 40.22234 | 14.51076 | 37967 ft | 440 kts | 199° |
| 2026-04-22 09:24 | 40.16250 | 14.49467 | 37970 ft | 441 kts | 199° |
| 2026-04-22 09:25 | 40.10246 | 14.47856 | 37970 ft | 441 kts | 199° |
| 2026-04-22 09:25 | 40.04234 | 14.46248 | 37966 ft | 442 kts | 199° |
| 2026-04-22 09:26 | 39.98199 | 14.44636 | 37960 ft | 442 kts | 199° |
| 2026-04-22 09:26 | 39.92188 | 14.43032 | 37969 ft | 442 kts | 199° |
| 2026-04-22 09:27 | 39.86176 | 14.41431 | 37968 ft | 441 kts | 199° |
| 2026-04-22 09:27 | 39.80175 | 14.39836 | 37968 ft | 441 kts | 199° |
| 2026-04-22 09:28 | 39.74176 | 14.38244 | 37976 ft | 441 kts | 199° |
| 2026-04-22 09:28 | 39.68164 | 14.36654 | 37979 ft | 441 kts | 199° |
| 2026-04-22 09:29 | 39.62197 | 14.35075 | 37975 ft | 440 kts | 199° |
| 2026-04-22 09:29 | 39.56180 | 14.33484 | 37713 ft | 442 kts | 198° |
| 2026-04-22 09:29 | 39.53161 | 14.32689 | 37395 ft | 439 kts | 198° |
| 2026-04-22 09:30 | 39.50186 | 14.31908 | 37077 ft | 435 kts | 198° |
| 2026-04-22 09:30 | 39.47269 | 14.31142 | 36775 ft | 433 kts | 198° |
| 2026-04-22 09:30 | 39.44300 | 14.30359 | 36519 ft | 433 kts | 198° |
| 2026-04-22 09:30 | 39.41343 | 14.29580 | 36283 ft | 433 kts | 198° |
| 2026-04-22 09:31 | 39.38390 | 14.28802 | 36047 ft | 434 kts | 198° |
| 2026-04-22 09:31 | 39.35457 | 14.28031 | 35812 ft | 436 kts | 198° |
| 2026-04-22 09:31 | 39.32498 | 14.27255 | 35574 ft | 436 kts | 198° |
| 2026-04-22 09:31 | 39.29523 | 14.26483 | 35335 ft | 437 kts | 198° |
| 2026-04-22 09:32 | 39.26535 | 14.25745 | 35095 ft | 438 kts | 197° |
| 2026-04-22 09:32 | 39.23520 | 14.25019 | 34855 ft | 439 kts | 197° |
| 2026-04-22 09:32 | 39.20531 | 14.24301 | 34604 ft | 439 kts | 197° |
| 2026-04-22 09:32 | 39.17519 | 14.23574 | 34329 ft | 440 kts | 197° |
| 2026-04-22 09:33 | 39.14541 | 14.22853 | 34056 ft | 440 kts | 197° |
| 2026-04-22 09:33 | 39.11554 | 14.22129 | 33781 ft | 439 kts | 197° |
| 2026-04-22 09:33 | 39.08542 | 14.21399 | 33508 ft | 440 kts | 197° |
| 2026-04-22 09:33 | 39.05551 | 14.20675 | 33235 ft | 440 kts | 197° |
| 2026-04-22 09:34 | 39.02531 | 14.19942 | 32956 ft | 441 kts | 197° |
| 2026-04-22 09:34 | 38.99528 | 14.19214 | 32678 ft | 441 kts | 197° |
| 2026-04-22 09:34 | 38.96502 | 14.18483 | 32406 ft | 440 kts | 197° |
| 2026-04-22 09:35 | 38.90506 | 14.17094 | 31854 ft | 439 kts | 193° |
| 2026-04-22 09:35 | 38.87459 | 14.16801 | 31577 ft | 442 kts | 186° |
| 2026-04-22 09:35 | 38.84397 | 14.16958 | 31309 ft | 445 kts | 179° |
| 2026-04-22 09:35 | 38.81313 | 14.17584 | 31037 ft | 447 kts | 171° |
| 2026-04-22 09:36 | 38.78336 | 14.18656 | 30767 ft | 449 kts | 164° |
| 2026-04-22 09:36 | 38.75428 | 14.20179 | 30499 ft | 449 kts | 158° |
| 2026-04-22 09:36 | 38.72632 | 14.21865 | 30230 ft | 447 kts | 157° |
| 2026-04-22 09:36 | 38.69847 | 14.23579 | 29958 ft | 445 kts | 157° |
| 2026-04-22 09:37 | 38.67056 | 14.25292 | 29688 ft | 443 kts | 157° |
| 2026-04-22 09:37 | 38.64292 | 14.26971 | 29419 ft | 441 kts | 157° |
| 2026-04-22 09:37 | 38.63361 | 14.27534 | 29329 ft | 440 kts | 157° |